Dodge City Regional Airport
KDDC : now visible

Airfield :











YOU CAN JOIN US ON...

 
LOGIN :

Register | Disclaimer

   EN    FR    IT 

 









Legend :    VFR   Marginal VFR   IFR   Intensive IFR   Very Intensive IFR
Visi :
Ceiling :
>= 8 km
>= 3000ft
5 to 8 km
1000 to 3000 ft
1500m to 5 km
500 to 1000 ft
800 to 1500m
200 to 500 ft
< 800m
< 200 ft
Symbols :   Thunderstorms  Fog  Heavy snow  Heavy precipitations  Wind > 20 kt






- Airport Elevation : 2594 ft
- IATA code : DDC


KDDC - Dodge City Regional

CURRENT METAR :
  • 230752Z AUTO 16014KT 10SM CLR 15/10 A2983 RMK AO2 SLP078 T01500100

EXPIRED METARs :
  • 230652Z AUTO 16014KT 10SM CLR 16/10 A2985 RMK AO2 SLP085 T01560100
  • 230552Z AUTO 16014KT 10SM CLR 16/09 A2987 RMK AO2 SLP092 T01560094 10250 20156 402560117 58005
  • 230452Z AUTO 15013KT 10SM CLR 16/09 A2987 RMK AO2 SLP094 T01610089
  • 230352Z AUTO 14010KT 10SM CLR 16/07 A2988 RMK AO2 SLP100 T01610072

TAF KDDC
Valid from the 23 at 06:00 until the 24 at 06:00 UTC


230520Z 2306/2406 16012KT P6SM FEW250
FM231400 18018G28KT P6SM FEW250
KZKC FIR / North America



MET'MAP, your aeronautical weather chart ! - Copyright ORBIFLY December 2007 - Disclaimer

ORBIFLY MET'MAP TEAM :

Programming & Development : Alexandra Zaïnal
Original concept : Baudouin d'Aumeries
Technical & hardware support : Manuel Goepfert
Assistance : Marc-Olivier Méhu




SOURCES & CREDITS :

   NOAA       Earth
Advisory